Time;durP1;ratioP1;P1;durP2;ratioP2;P2;SDS_P1;SDS_P2;PMS_P1;PMS_P2;Temp;Humidity;BMP_temperature;BMP_pressure;BME280_temperature;BME280_humidity;BME280_pressure;Samples;Min_cycle;Max_cycle;Signal;HPM_P1;HPM_P2
2022/04/15 00:00:07;;;;;;;11.23;3.30;;;;;;;7.14;44.61;99438.94;6215480;23;20030;-65
2022/04/15 00:02:34;;;;;;;18.90;3.58;;;;;;;7.04;44.58;99441.94;6215521;23;20021;-64
2022/04/15 00:05:01;;;;;;;12.48;3.25;;;;;;;6.96;45.13;99430.81;6215317;23;20024;-65
2022/04/15 00:07:28;;;;;;;16.67;3.22;;;;;;;6.93;44.85;99434.22;6214085;23;20030;-64
2022/04/15 00:09:55;;;;;;;11.63;3.72;;;;;;;6.97;44.82;99435.22;6215915;23;20056;-65
2022/04/15 00:12:28;;;;;;;21.05;3.65;;;;;;;6.97;45.50;99424.16;6215433;23;20103;-65
2022/04/15 00:14:55;;;;;;;14.70;3.75;;;;;;;6.99;45.02;99422.69;6215486;23;20095;-65
2022/04/15 00:17:22;;;;;;;14.63;3.67;;;;;;;7.03;44.98;99417.38;6215243;23;20107;-65
2022/04/15 00:19:49;;;;;;;18.80;4.78;;;;;;;7.06;44.93;99422.28;6213444;23;20028;-65
2022/04/15 00:22:17;;;;;;;12.55;3.38;;;;;;;7.05;45.58;99409.59;6215341;23;20066;-65
2022/04/15 00:24:44;;;;;;;12.93;3.35;;;;;;;7.08;45.46;99415.28;6215388;23;20107;-65
2022/04/15 00:27:11;;;;;;;23.95;3.30;;;;;;;7.13;45.23;99417.94;6215114;23;20127;-64
2022/04/15 00:29:38;;;;;;;15.57;3.88;;;;;;;7.19;45.65;99411.16;6215030;23;20046;-65
2022/04/15 00:32:06;;;;;;;9.02;3.58;;;;;;;7.21;45.59;99413.59;6214876;23;20025;-65
2022/04/15 00:34:34;;;;;;;12.15;3.42;;;;;;;7.21;45.29;99410.84;6214879;23;20075;-64
2022/04/15 00:37:01;;;;;;;8.75;3.22;;;;;;;7.19;46.07;99404.78;6214794;23;20123;-65
2022/04/15 00:39:28;;;;;;;11.55;3.90;;;;;;;7.16;45.58;99405.41;6215666;23;20107;-65
2022/04/15 00:41:57;;;;;;;11.27;3.83;;;;;;;7.12;45.84;99416.31;6214829;23;20051;-65
2022/04/15 00:44:24;;;;;;;24.90;4.03;;;;;;;7.12;46.19;99410.78;6215267;23;20052;-65
2022/04/15 00:46:51;;;;;;;20.02;4.40;;;;;;;7.11;46.65;99414.66;6215121;23;20446;-65
2022/04/15 00:49:18;;;;;;;10.48;3.85;;;;;;;7.08;46.07;99403.44;6213817;23;20463;-65
2022/04/15 00:51:47;;;;;;;15.88;3.70;;;;;;;7.11;46.28;99413.88;6215120;23;20059;-65
2022/04/15 00:54:18;;;;;;;20.10;4.07;;;;;;;7.05;46.82;99410.38;6215174;23;20063;-65
2022/04/15 00:56:46;;;;;;;11.80;3.95;;;;;;;7.06;46.34;99419.50;6215156;23;20035;-65
2022/04/15 00:59:14;;;;;;;20.27;3.92;;;;;;;7.06;46.84;99419.50;6215132;23;20487;-65
2022/04/15 01:01:43;;;;;;;13.55;4.32;;;;;;;7.05;46.52;99415.13;6215008;23;20389;-65
2022/04/15 01:04:11;;;;;;;10.73;3.40;;;;;;;7.10;46.38;99423.28;6215146;23;20352;-67
2022/04/15 01:06:38;;;;;;;16.92;3.40;;;;;;;7.12;46.18;99415.50;6215127;23;20028;-65
2022/04/15 01:09:06;;;;;;;14.02;3.78;;;;;;;7.14;46.16;99424.31;6215077;23;20479;-65
2022/04/15 01:11:34;;;;;;;16.27;4.70;;;;;;;7.16;46.51;99408.19;6215514;23;20509;-64
2022/04/15 01:14:02;;;;;;;28.73;5.18;;;;;;;7.17;46.24;99413.41;6216313;23;20360;-65
2022/04/15 01:16:30;;;;;;;13.02;4.38;;;;;;;7.19;45.87;99413.91;6216904;23;20021;-64
2022/04/15 01:18:57;;;;;;;17.83;4.57;;;;;;;7.14;46.35;99410.47;6216714;23;20059;-64
2022/04/15 01:21:27;;;;;;;17.17;4.97;;;;;;;7.11;46.69;99411.91;6217105;23;20024;-65
2022/04/15 01:23:54;;;;;;;12.85;5.05;;;;;;;7.08;46.62;99415.28;6216900;23;20100;-65
2022/04/15 01:26:21;;;;;;;15.75;6.03;;;;;;;7.05;46.80;99409.59;6217113;23;20433;-65
2022/04/15 01:28:48;;;;;;;13.55;6.75;;;;;;;7.04;46.28;99414.28;6216581;23;20116;-64
2022/04/15 01:31:15;;;;;;;14.98;6.82;;;;;;;7.01;46.25;99403.03;6216895;23;20058;-64
2022/04/15 01:33:42;;;;;;;17.45;6.15;;;;;;;6.98;46.63;99403.66;6216818;23;20034;-64
2022/04/15 01:36:11;;;;;;;24.45;6.00;;;;;;;6.96;46.55;99397.63;6216640;23;20368;-65
2022/04/15 01:38:38;;;;;;;16.58;6.18;;;;;;;6.92;46.74;99400.19;6216886;23;20028;-65
2022/04/15 01:41:05;;;;;;;11.40;5.35;;;;;;;6.93;46.81;99401.03;6217338;23;20071;-65
2022/04/15 01:43:32;;;;;;;13.32;5.68;;;;;;;6.94;46.84;99394.34;6215633;23;20376;-72
2022/04/15 01:45:59;;;;;;;14.43;6.65;;;;;;;6.91;46.54;99384.75;6215136;23;20617;-72
2022/04/15 01:48:27;;;;;;;19.25;5.28;;;;;;;6.96;46.76;99389.34;6215388;23;20024;-72
2022/04/15 01:50:54;;;;;;;29.50;5.93;;;;;;;6.95;46.98;99394.03;6216904;23;20020;-72
2022/04/15 01:53:22;;;;;;;16.38;4.95;;;;;;;6.94;47.05;99388.81;6216499;23;20075;-72
2022/04/15 01:55:50;;;;;;;17.23;5.18;;;;;;;6.90;46.97;99387.81;6216756;23;20032;-72
2022/04/15 01:58:17;;;;;;;13.95;4.88;;;;;;;6.92;46.30;99393.84;6216648;23;20029;-72
2022/04/15 02:00:44;;;;;;;15.63;5.32;;;;;;;6.92;46.48;99386.38;6216384;23;20486;-71
2022/04/15 02:03:12;;;;;;;12.90;6.50;;;;;;;6.94;46.68;99380.53;6216835;23;20360;-71
2022/04/15 02:05:39;;;;;;;21.50;7.60;;;;;;;6.94;46.52;99381.34;6214853;23;20045;-72
2022/04/15 02:08:06;;;;;;;22.27;8.93;;;;;;;7.01;46.23;99386.44;6189983;23;20032;-71
2022/04/15 02:10:34;;;;;;;18.08;7.80;;;;;;;7.00;46.99;99384.81;6216552;23;20048;-71
2022/04/15 02:13:01;;;;;;;15.85;6.03;;;;;;;7.04;46.81;99374.75;6216486;23;20020;-71
2022/04/15 02:15:28;;;;;;;13.18;5.72;;;;;;;7.08;46.37;99373.00;6217436;23;20025;-71
2022/04/15 02:17:55;;;;;;;14.60;5.40;;;;;;;7.12;46.29;99376.75;6215233;23;20538;-71
2022/04/15 02:20:22;;;;;;;15.60;7.00;;;;;;;7.11;46.72;99378.69;6216967;23;20119;-72
2022/04/15 02:22:51;;;;;;;10.02;5.43;;;;;;;7.12;46.55;99376.75;6216362;23;20111;-71
2022/04/15 02:25:18;;;;;;;17.05;5.95;;;;;;;7.14;46.32;99380.03;6216624;23;20020;-71
2022/04/15 02:27:45;;;;;;;26.30;5.20;;;;;;;7.15;46.55;99387.19;6216215;23;20079;-73
2022/04/15 02:30:12;;;;;;;20.73;4.70;;;;;;;7.14;46.43;99385.56;6215131;23;20078;-71
2022/04/15 02:32:39;;;;;;;10.52;3.65;;;;;;;7.16;46.06;99394.34;6215911;23;20055;-70
2022/04/15 02:35:08;;;;;;;8.95;3.53;;;;;;;7.17;46.14;99390.47;6216043;23;20033;-71
2022/04/15 02:37:35;;;;;;;15.50;4.03;;;;;;;7.16;46.37;99383.28;6217197;23;20516;-71
2022/04/15 02:40:04;;;;;;;8.77;3.55;;;;;;;7.11;46.43;99380.66;6216722;23;20025;-71
2022/04/15 02:42:31;;;;;;;16.42;4.00;;;;;;;7.11;46.47;99384.22;6216351;23;20056;-71
2022/04/15 02:44:58;;;;;;;9.15;3.50;;;;;;;7.11;46.29;99386.22;6216666;23;20025;-72
2022/04/15 02:47:25;;;;;;;17.98;4.00;;;;;;;7.11;46.43;99386.22;6216728;23;20036;-72
2022/04/15 02:49:52;;;;;;;9.38;3.67;;;;;;;7.09;45.83;99386.53;6214429;23;20020;-72
2022/04/15 02:52:20;;;;;;;19.38;4.15;;;;;;;7.10;45.96;99379.03;6214643;23;20024;-72
2022/04/15 02:54:48;;;;;;;7.90;3.78;;;;;;;7.16;45.68;99388.81;6216109;23;20103;-65
2022/04/15 02:57:15;;;;;;;7.15;3.63;;;;;;;7.14;45.73;99385.56;6216136;23;20031;-65
2022/04/15 02:59:42;;;;;;;15.73;4.95;;;;;;;7.17;46.06;99388.50;6216229;23;20027;-65
2022/04/15 03:02:08;;;;;;;17.95;4.32;;;;;;;7.20;45.47;99378.78;6216090;23;20048;-64
2022/04/15 03:04:36;;;;;;;16.08;3.63;;;;;;;7.23;45.75;99373.41;6215940;23;20059;-65
2022/04/15 03:07:03;;;;;;;10.02;4.03;;;;;;;7.23;45.56;99378.16;6214128;23;20028;-63
2022/04/15 03:09:30;;;;;;;8.40;4.05;;;;;;;7.23;46.13;99376.19;6216030;23;20055;-65
2022/04/15 03:11:56;;;;;;;16.77;4.07;;;;;;;7.25;46.01;99376.69;6215516;23;20028;-65
2022/04/15 03:14:24;;;;;;;14.65;4.25;;;;;;;7.23;45.80;99378.94;6216264;23;20032;-71
2022/04/15 03:16:50;;;;;;;15.15;4.53;;;;;;;7.21;45.88;99388.72;6216568;23;20152;-71
2022/04/15 03:19:18;;;;;;;9.43;4.45;;;;;;;7.23;46.05;99378.16;6216061;23;20063;-71
2022/04/15 03:21:45;;;;;;;9.18;3.88;;;;;;;7.30;45.76;99384.06;6215853;23;20334;-70
2022/04/15 03:24:11;;;;;;;12.63;3.97;;;;;;;7.36;45.63;99372.56;6215895;23;20118;-70
2022/04/15 03:26:38;;;;;;;17.58;3.92;;;;;;;7.46;45.02;99374.22;6215895;23;20029;-70
2022/04/15 03:29:05;;;;;;;17.98;4.15;;;;;;;7.52;45.45;99375.72;6215476;23;20112;-71
2022/04/15 03:31:32;;;;;;;17.58;3.88;;;;;;;7.61;45.18;99364.72;6216013;23;20024;-71
2022/04/15 03:33:59;;;;;;;16.35;3.25;;;;;;;7.70;44.72;99366.41;6213849;23;20132;-71
2022/04/15 03:36:27;;;;;;;11.35;3.45;;;;;;;7.80;44.68;99377.19;6216347;23;20111;-71
2022/04/15 03:38:54;;;;;;;8.57;3.30;;;;;;;7.96;43.87;99369.28;6189075;23;20029;-65
2022/04/15 03:41:22;;;;;;;10.98;3.10;;;;;;;8.14;43.57;99371.00;6215756;23;20515;-66
2022/04/15 03:43:50;;;;;;;8.30;3.45;;;;;;;8.32;43.18;99370.72;6215391;23;20021;-65
2022/04/15 03:46:17;;;;;;;6.57;3.00;;;;;;;8.49;43.21;99359.69;6213976;23;20032;-66
2022/04/15 03:48:45;;;;;;;12.13;3.03;;;;;;;8.71;43.05;99354.00;6215440;23;20029;-65
2022/04/15 03:51:12;;;;;;;7.82;3.15;;;;;;;8.90;42.56;99353.69;6215700;23;20024;-65
2022/04/15 03:53:39;;;;;;;19.05;2.60;;;;;;;9.12;42.22;99359.88;6215183;23;20027;-64
2022/04/15 03:56:07;;;;;;;6.60;2.63;;;;;;;9.30;41.70;99355.94;6215516;23;20456;-65
2022/04/15 03:58:35;;;;;;;5.22;2.25;;;;;;;9.39;40.86;99355.13;6215282;23;20531;-70
2022/04/15 04:01:02;;;;;;;6.50;2.78;;;;;;;9.41;41.10;99361.97;6213906;23;20031;-72
2022/04/15 04:03:29;;;;;;;7.22;3.50;;;;;;;9.32;40.76;99364.78;6215621;23;20020;-71
2022/04/15 04:05:56;;;;;;;9.73;3.45;;;;;;;9.14;40.98;99362.34;6215725;23;20024;-72
2022/04/15 04:08:23;;;;;;;13.18;3.22;;;;;;;9.06;41.19;99366.75;6215440;23;20122;-72
2022/04/15 04:10:50;;;;;;;9.60;3.10;;;;;;;9.07;41.18;99359.25;6215812;23;20063;-73
2022/04/15 04:13:17;;;;;;;6.88;2.83;;;;;;;9.16;41.22;99360.88;6215285;23;20062;-72
2022/04/15 04:15:45;;;;;;;11.02;3.63;;;;;;;9.26;40.44;99354.16;6215171;23;20024;-72
2022/04/15 04:18:14;;;;;;;17.08;3.25;;;;;;;9.33;40.58;99360.03;6215260;23;20024;-73
2022/04/15 04:20:41;;;;;;;11.53;2.80;;;;;;;9.28;40.77;99346.31;6216756;23;20024;-71
2022/04/15 04:23:08;;;;;;;8.52;2.25;;;;;;;9.18;40.28;99346.69;6215473;23;20021;-71
2022/04/15 04:25:35;;;;;;;8.57;2.58;;;;;;;9.19;40.10;99349.13;6215170;23;20028;-72
2022/04/15 04:28:02;;;;;;;4.90;2.28;;;;;;;9.13;40.78;99347.66;6215309;23;20055;-73
2022/04/15 04:30:30;;;;;;;8.70;2.10;;;;;;;9.11;40.44;99341.63;6214506;23;20024;-71
2022/04/15 04:32:59;;;;;;;4.95;2.50;;;;;;;9.06;40.64;99346.53;6189037;23;20025;-72
2022/04/15 04:35:27;;;;;;;7.28;2.38;;;;;;;9.02;40.60;99349.13;6215446;23;20028;-72
2022/04/15 04:37:54;;;;;;;41.33;6.40;;;;;;;8.97;40.60;99346.50;6214985;23;20028;-71
2022/04/15 04:40:21;;;;;;;8.80;2.47;;;;;;;8.96;40.21;99342.13;6214475;23;20025;-71
2022/04/15 04:42:50;;;;;;;6.07;2.35;;;;;;;8.97;40.43;99346.50;6215327;23;20074;-72
2022/04/15 04:45:18;;;;;;;10.65;2.30;;;;;;;8.95;40.63;99342.44;6215864;23;20074;-72
2022/04/15 04:47:47;;;;;;;7.30;2.42;;;;;;;8.97;40.59;99343.75;6215126;23;20107;-73
2022/04/15 04:50:14;;;;;;;12.52;3.72;;;;;;;8.96;41.04;99350.44;6214867;23;20054;-72
2022/04/15 04:52:41;;;;;;;12.27;2.72;;;;;;;9.07;40.47;99346.19;6215292;23;20059;-73
2022/04/15 04:55:09;;;;;;;5.97;2.13;;;;;;;9.14;40.72;99340.97;6215473;23;20051;-72
2022/04/15 04:57:38;;;;;;;19.52;2.65;;;;;;;9.16;40.11;99348.94;6215175;23;20024;-73
2022/04/15 05:00:11;;;;;;;13.57;2.42;;;;;;;9.22;40.35;99345.69;6215105;23;20090;-72
2022/04/15 05:02:38;;;;;;;10.90;2.00;;;;;;;9.25;40.08;99345.03;6215008;23;20111;-73
2022/04/15 05:05:07;;;;;;;10.20;2.20;;;;;;;9.27;40.04;99341.94;6215239;23;20361;-71
2022/04/15 05:07:34;;;;;;;11.55;3.05;;;;;;;9.31;40.18;99345.66;6215717;23;20024;-71
2022/04/15 05:10:07;;;;;;;8.75;2.30;;;;;;;9.41;39.69;99338.97;6214171;23;20027;-71
2022/04/15 05:12:34;;;;;;;15.77;2.47;;;;;;;9.49;40.09;99350.03;6213517;23;20075;-70
2022/04/15 05:15:01;;;;;;;7.82;2.10;;;;;;;9.49;39.72;99338.94;6213290;23;20472;-65
2022/04/15 05:17:29;;;;;;;14.85;3.10;;;;;;;9.52;39.72;99349.38;6215957;23;20332;-65
2022/04/15 05:19:56;;;;;;;5.20;1.98;;;;;;;9.60;39.75;99339.41;6214724;23;20021;-66
2022/04/15 05:22:23;;;;;;;9.02;2.03;;;;;;;9.73;39.83;99335.59;6214728;23;20067;-67
2022/04/15 05:24:52;;;;;;;10.88;2.13;;;;;;;9.84;39.72;99334.09;6213616;23;20024;-65
2022/04/15 05:27:19;;;;;;;8.80;2.40;;;;;;;9.97;38.62;99335.81;6214399;23;20119;-66
2022/04/15 05:29:46;;;;;;;11.43;2.22;;;;;;;10.06;38.96;99344.94;6214644;23;20052;-66
2022/04/15 05:32:13;;;;;;;11.02;2.10;;;;;;;10.08;38.33;99343.50;6214452;23;20048;-65
2022/04/15 05:34:42;;;;;;;7.70;2.00;;;;;;;10.07;38.53;99341.06;6214993;23;20352;-65
2022/04/15 05:37:09;;;;;;;5.68;1.73;;;;;;;10.02;38.54;99339.25;6214911;23;20025;-65
2022/04/15 05:39:36;;;;;;;6.38;2.13;;;;;;;9.94;38.71;99331.75;6215079;23;20044;-65
2022/04/15 05:42:04;;;;;;;16.60;4.03;;;;;;;10.01;39.41;99336.81;6215253;23;20024;-65
2022/04/15 05:44:31;;;;;;;9.55;2.80;;;;;;;10.20;38.79;99340.81;6214937;23;20115;-65
2022/04/15 05:46:58;;;;;;;17.95;2.15;;;;;;;10.37;38.66;99339.91;6214724;23;20107;-65
2022/04/15 05:49:25;;;;;;;13.65;1.60;;;;;;;10.41;38.23;99336.13;6214793;23;20044;-65
2022/04/15 05:51:52;;;;;;;5.88;2.70;;;;;;;10.41;37.80;99338.06;6214548;23;20075;-65
2022/04/15 05:54:20;;;;;;;13.27;1.70;;;;;;;10.35;37.72;99333.84;6214853;23;20107;-65
2022/04/15 05:56:47;;;;;;;7.50;2.22;;;;;;;10.39;37.18;99343.19;6214602;23;20025;-65
2022/04/15 05:59:14;;;;;;;4.43;1.80;;;;;;;10.57;37.23;99339.94;6215851;23;20430;-65
2022/04/15 06:01:41;;;;;;;12.13;1.50;;;;;;;10.72;36.99;99338.53;6216875;23;20103;-67
2022/04/15 06:04:08;;;;;;;16.40;2.00;;;;;;;11.01;36.42;99341.22;6216757;23;20027;-65
2022/04/15 06:06:35;;;;;;;7.35;2.03;;;;;;;11.52;35.96;99334.38;6216582;23;20055;-65
2022/04/15 06:09:02;;;;;;;7.03;2.30;;;;;;;11.72;35.88;99325.97;6216522;23;20148;-66
2022/04/15 06:11:29;;;;;;;7.25;1.85;;;;;;;11.86;35.37;99325.63;6216630;23;20047;-65
2022/04/15 06:13:56;;;;;;;9.63;2.67;;;;;;;12.00;35.14;99326.13;6216081;23;20112;-65
2022/04/15 06:16:26;;;;;;;12.52;1.83;;;;;;;12.57;34.30;99324.84;6216627;23;20020;-66
2022/04/15 06:18:53;;;;;;;11.60;2.58;;;;;;;13.10;33.76;99331.25;6216174;23;20103;-64
2022/04/15 06:21:40;;;;;;;6.38;2.28;;;;;;;13.65;32.97;99331.25;6216423;23;20024;-65
2022/04/15 06:24:08;;;;;;;7.25;1.98;;;;;;;14.14;31.10;99327.75;6216489;23;20042;-65
2022/04/15 06:26:36;;;;;;;13.82;2.00;;;;;;;14.64;30.29;99329.81;6215547;23;20024;-64
2022/04/15 06:29:04;;;;;;;6.65;1.92;;;;;;;15.34;29.85;99325.75;6216191;23;20403;-65
2022/04/15 06:31:31;;;;;;;11.93;2.08;;;;;;;16.13;28.29;99318.47;6216770;23;20478;-66
2022/04/15 06:33:58;;;;;;;21.38;7.68;;;;;;;17.05;27.30;99317.94;6216118;23;20463;-65
2022/04/15 06:36:25;;;;;;;8.35;2.03;;;;;;;17.87;26.51;99318.53;6216336;23;20044;-66
2022/04/15 06:38:52;;;;;;;10.13;2.65;;;;;;;18.84;25.42;99317.78;6216069;23;20055;-65
2022/04/15 06:41:19;;;;;;;7.22;2.38;;;;;;;20.22;23.27;99308.66;6216661;23;20025;-71
2022/04/15 06:43:46;;;;;;;6.72;2.20;;;;;;;21.95;21.45;99307.06;6216065;23;20059;-71
2022/04/15 06:46:13;;;;;;;8.15;2.38;;;;;;;23.02;20.28;99303.75;6216554;23;20027;-72
2022/04/15 06:48:41;;;;;;;5.45;2.30;;;;;;;23.05;19.97;99305.72;6215905;23;20408;-71
2022/04/15 06:51:08;;;;;;;9.93;2.45;;;;;;;22.35;20.09;99297.06;6216235;23;20108;-71
2022/04/15 06:53:34;;;;;;;10.68;2.15;;;;;;;21.37;20.96;99298.41;6215580;23;20026;-72
2022/04/15 06:56:02;;;;;;;4.70;2.65;;;;;;;20.45;21.92;99299.78;6216189;23;20112;-71
2022/04/15 06:58:29;;;;;;;7.65;3.00;;;;;;;20.12;21.98;99297.31;6215925;23;20020;-72
2022/04/15 07:00:56;;;;;;;14.52;3.00;;;;;;;20.07;22.29;99301.34;6215873;23;20415;-71
2022/04/15 07:03:25;;;;;;;6.70;2.10;;;;;;;19.82;22.60;99309.81;6215896;23;20451;-71
2022/04/15 07:05:52;;;;;;;13.07;2.33;;;;;;;20.12;22.17;99291.69;6215663;23;20029;-71
2022/04/15 07:08:19;;;;;;;7.95;2.38;;;;;;;19.88;22.37;99296.09;6215637;23;20051;-71
2022/04/15 07:10:46;;;;;;;13.93;2.88;;;;;;;19.44;22.99;99290.72;6215624;23;20059;-70
2022/04/15 07:13:13;;;;;;;6.20;3.22;;;;;;;19.27;22.93;99297.09;6213794;23;20107;-71
2022/04/15 07:15:40;;;;;;;9.52;2.60;;;;;;;18.93;23.27;99287.25;6215766;23;20028;-72
2022/04/15 07:18:07;;;;;;;7.50;2.50;;;;;;;19.04;22.79;99284.47;6215871;23;20024;-71
2022/04/15 07:20:34;;;;;;;6.28;2.45;;;;;;;19.41;22.63;99291.53;6215557;23;20024;-71
2022/04/15 07:23:02;;;;;;;18.27;2.70;;;;;;;20.12;21.88;99286.03;6215522;23;20452;-71
2022/04/15 07:25:29;;;;;;;5.78;2.42;;;;;;;20.41;21.44;99276.38;6215538;23;20329;-71
2022/04/15 07:27:56;;;;;;;9.13;2.60;;;;;;;20.62;21.01;99279.19;6215703;23;20035;-71
2022/04/15 07:30:24;;;;;;;5.78;1.88;;;;;;;20.80;20.84;99277.13;6213800;23;20024;-71
2022/04/15 07:32:54;;;;;;;10.02;2.40;;;;;;;21.12;20.70;99275.88;6215294;23;20060;-71
2022/04/15 07:35:20;;;;;;;;;;;;;;;21.29;20.81;99271.38;6216099;23;20056;-72
2022/04/15 07:37:48;;;;;;;5.45;2.13;;;;;;;21.33;20.11;99272.16;6215448;23;20271;-71
2022/04/15 07:40:15;;;;;;;5.68;2.38;;;;;;;21.70;19.66;99275.19;6216009;23;20027;-66
2022/04/15 07:42:44;;;;;;;7.97;1.98;;;;;;;22.24;19.08;99265.97;6213926;23;20048;-65
2022/04/15 07:45:11;;;;;;;10.65;2.05;;;;;;;22.92;18.95;99262.06;6215689;23;20024;-65
2022/04/15 07:47:38;;;;;;;6.00;2.25;;;;;;;23.21;18.40;99268.25;6215558;23;20075;-64
2022/04/15 07:50:23;;;;;;;10.60;2.60;;;;;;;23.77;18.04;99263.91;6216470;23;20029;-65
2022/04/15 07:52:55;;;;;;;7.10;2.60;;;;;;;24.06;17.73;99268.75;6215679;23;20021;-64
2022/04/15 07:55:22;;;;;;;10.50;2.67;;;;;;;24.10;17.55;99268.72;6215857;23;20052;-64
2022/04/15 07:57:49;;;;;;;5.00;1.98;;;;;;;24.65;17.18;99260.47;6215445;23;20409;-65
2022/04/15 08:00:16;;;;;;;10.02;2.25;;;;;;;25.07;16.42;99260.50;6215405;23;20107;-65
2022/04/15 08:02:43;;;;;;;6.93;2.55;;;;;;;24.82;16.79;99259.34;6215516;23;20060;-70
2022/04/15 08:05:11;;;;;;;5.50;2.55;;;;;;;24.48;17.08;99261.59;6213669;23;20028;-65
2022/04/15 08:07:37;;;;;;;10.38;2.45;;;;;;;23.59;17.59;99252.78;6215176;23;20508;-66
2022/04/15 08:10:06;;;;;;;10.25;2.63;;;;;;;22.18;18.67;99256.31;6215312;23;20113;-65
2022/04/15 08:12:33;;;;;;;4.88;2.33;;;;;;;21.07;19.63;99255.69;6215639;23;20536;-65
2022/04/15 08:15:00;;;;;;;14.77;4.60;;;;;;;20.94;19.62;99254.50;6215350;23;20024;-65
2022/04/15 08:17:29;;;;;;;17.77;3.75;;;;;;;21.26;19.54;99249.56;6215490;23;20048;-65
2022/04/15 08:19:58;;;;;;;6.90;1.70;;;;;;;21.08;19.40;99249.63;6215587;23;20024;-65
2022/04/15 08:22:26;;;;;;;5.00;1.60;;;;;;;20.59;19.41;99254.56;6214989;23;20408;-65
2022/04/15 08:24:54;;;;;;;5.60;1.73;;;;;;;20.31;19.95;99251.78;6215297;23;20409;-64
2022/04/15 08:27:22;;;;;;;4.43;2.10;;;;;;;20.31;19.73;99257.44;6214987;23;20029;-63
2022/04/15 08:29:49;;;;;;;8.25;2.78;;;;;;;20.91;19.36;99252.47;6215272;23;20021;-62
2022/04/15 08:32:17;;;;;;;3.42;1.80;;;;;;;22.88;17.71;99249.97;6215255;23;20024;-64
2022/04/15 08:34:44;;;;;;;11.93;2.70;;;;;;;24.38;16.79;99251.19;6215184;23;20024;-64
2022/04/15 08:37:12;;;;;;;10.50;2.92;;;;;;;25.09;15.73;99243.78;6215391;23;20119;-64
2022/04/15 08:39:40;;;;;;;5.65;2.00;;;;;;;23.95;16.38;99255.91;6215201;23;20029;-63
2022/04/15 08:42:08;;;;;;;38.42;12.65;;;;;;;22.27;17.94;99248.13;6215361;23;20307;-63
2022/04/15 08:44:35;;;;;;;7.97;2.10;;;;;;;21.52;18.87;99251.84;6215152;23;20027;-64
2022/04/15 08:47:03;;;;;;;9.93;2.28;;;;;;;21.86;18.52;99250.06;6214733;23;20025;-64
2022/04/15 08:49:30;;;;;;;6.15;1.65;;;;;;;21.16;19.03;99261.72;6215550;23;20413;-64
2022/04/15 08:51:58;;;;;;;4.63;1.42;;;;;;;19.92;19.97;99249.72;6215052;23;20020;-63
2022/04/15 08:54:26;;;;;;;6.35;2.03;;;;;;;18.89;20.91;99254.59;6215254;23;20063;-64
2022/04/15 08:56:52;;;;;;;12.23;1.63;;;;;;;17.91;21.94;99252.66;6213103;23;20024;-63
2022/04/15 08:59:19;;;;;;;3.17;1.10;;;;;;;17.34;22.60;99256.06;6215052;23;20356;-63
2022/04/15 09:01:46;;;;;;;4.78;1.08;;;;;;;16.37;23.45;99257.13;6214839;23;20402;-64
2022/04/15 09:04:14;;;;;;;4.80;1.45;;;;;;;15.73;24.66;99254.47;6214585;23;20118;-63
2022/04/15 09:06:44;;;;;;;2.38;1.08;;;;;;;15.47;24.80;99245.13;6214627;23;20427;-63
2022/04/15 09:09:13;;;;;;;5.47;1.33;;;;;;;15.41;25.01;99255.03;6214964;23;20037;-66
2022/04/15 09:11:44;;;;;;;4.85;1.10;;;;;;;15.37;24.90;99252.16;6214502;23;20020;-64
2022/04/15 09:14:14;;;;;;;8.85;1.63;;;;;;;15.15;25.46;99254.88;6213468;23;20025;-63
2022/04/15 09:16:45;;;;;;;6.33;1.47;;;;;;;14.92;26.16;99245.63;6214941;23;20396;-64
2022/04/15 09:19:13;;;;;;;5.78;1.67;;;;;;;14.65;26.75;99255.81;6215860;23;20452;-63
2022/04/15 09:21:49;;;;;;;5.70;1.52;;;;;;;14.47;26.74;99258.25;6215293;23;20407;-65
2022/04/15 09:24:17;;;;;;;6.55;1.50;;;;;;;14.28;27.11;99247.00;6214961;23;20095;-67
2022/04/15 09:26:48;;;;;;;3.60;1.30;;;;;;;14.22;27.74;99250.41;6214715;23;20115;-67
2022/04/15 09:29:15;;;;;;;4.40;1.50;;;;;;;14.10;28.12;99248.50;6214487;23;20103;-65
2022/04/15 09:31:45;;;;;;;6.50;1.50;;;;;;;14.20;28.10;99252.75;6214608;23;20032;-65
2022/04/15 09:34:12;;;;;;;2.00;1.10;;;;;;;14.34;28.04;99245.56;6215443;23;20024;-63
2022/04/15 09:36:39;;;;;;;11.10;1.67;;;;;;;14.54;28.09;99250.00;6217184;23;20051;-64
2022/04/15 09:39:11;;;;;;;3.70;1.30;;;;;;;14.72;27.64;99247.59;6216659;23;20027;-64
2022/04/15 09:41:40;;;;;;;5.55;1.70;;;;;;;14.81;27.34;99239.78;6216455;23;20107;-64
2022/04/15 09:44:11;;;;;;;3.75;1.52;;;;;;;14.78;27.66;99240.53;6216779;23;20382;-63
2022/04/15 09:46:44;;;;;;;7.65;2.03;;;;;;;14.58;28.01;99247.28;6217024;23;20056;-64
2022/04/15 09:49:12;;;;;;;10.20;1.80;;;;;;;14.16;28.83;99240.69;6216508;23;20111;-64
2022/04/15 09:51:44;;;;;;;4.47;1.77;;;;;;;13.84;29.34;99236.28;6216761;23;20024;-64
2022/04/15 09:54:34;;;;;;;3.10;1.58;;;;;;;13.74;29.43;99231.25;6216561;23;20108;-64
2022/04/15 09:57:03;;;;;;;16.83;1.98;;;;;;;13.65;29.72;99241.78;6216878;23;20028;-64
2022/04/15 09:59:31;;;;;;;2.63;1.58;;;;;;;13.37;30.45;99246.63;6216697;23;20080;-65
2022/04/15 10:02:03;;;;;;;4.43;2.20;;;;;;;13.26;30.73;99248.34;6217120;23;20020;-64
2022/04/15 10:04:33;;;;;;;4.20;1.42;;;;;;;13.26;30.54;99242.75;6216765;23;20044;-66
2022/04/15 10:07:05;;;;;;;3.35;1.40;;;;;;;13.10;31.08;99251.06;6216346;23;20115;-64
2022/04/15 10:09:37;;;;;;;2.85;1.40;;;;;;;12.93;31.73;99261.72;6216740;23;20032;-65
2022/04/15 10:12:06;;;;;;;6.85;1.40;;;;;;;12.76;32.12;99260.81;6216548;23;20051;-65
2022/04/15 10:14:38;;;;;;;3.40;1.37;;;;;;;12.68;32.74;99258.97;6216484;23;20112;-65
2022/04/15 10:17:05;;;;;;;2.67;1.10;;;;;;;12.61;32.66;99258.78;6214572;23;20346;-65
2022/04/15 10:19:33;;;;;;;3.78;1.30;;;;;;;12.58;33.17;99253.09;6216850;23;20032;-66
2022/04/15 10:22:00;;;;;;;2.05;1.00;;;;;;;12.54;33.04;99254.97;6214566;23;20425;-65
2022/04/15 10:24:28;;;;;;;6.30;1.20;;;;;;;12.50;33.50;99252.06;6216530;23;20445;-65
2022/04/15 10:26:59;;;;;;;2.95;1.27;;;;;;;12.48;33.55;99237.66;6216377;23;20031;-65
2022/04/15 10:29:27;;;;;;;2.65;1.20;;;;;;;12.53;33.38;99240.19;6215941;23;20028;-66
2022/04/15 10:31:54;;;;;;;2.35;1.17;;;;;;;12.70;32.93;99234.34;6216699;23;20025;-65
2022/04/15 10:34:22;;;;;;;6.35;1.20;;;;;;;13.01;32.56;99235.63;6214454;23;20043;-65
2022/04/15 10:36:51;;;;;;;8.52;1.55;;;;;;;13.19;32.57;99234.16;6216242;23;20021;-65
2022/04/15 10:39:26;;;;;;;2.55;1.33;;;;;;;13.15;32.61;99239.66;6216372;23;20110;-64
2022/04/15 10:41:55;;;;;;;3.17;1.02;;;;;;;12.91;33.23;99237.75;6216340;23;20453;-64
2022/04/15 10:44:30;;;;;;;3.20;2.10;;;;;;;12.81;33.02;99238.25;6216321;23;20028;-65
2022/04/15 10:47:19;;;;;;;6.00;1.40;;;;;;;12.83;33.42;99238.72;6215486;23;20509;-65
2022/04/15 10:50:06;;;;;;;3.20;1.20;;;;;;;12.75;33.20;99227.69;6202133;23;20035;-66
2022/04/15 10:52:36;;;;;;;5.22;1.30;;;;;;;12.72;33.50;99220.84;6216191;23;20346;-69
2022/04/15 10:55:08;;;;;;;2.10;1.10;;;;;;;12.76;33.54;99229.31;6215423;23;20099;-66
2022/04/15 10:57:37;;;;;;;3.63;1.10;;;;;;;12.69;33.51;99220.72;6215390;23;20528;-66
2022/04/15 11:03:02;;;;;;;2.63;1.48;;;;;;;12.80;33.20;99210.69;6215548;22;20104;-65
2022/04/15 11:05:42;;;;;;;3.03;1.27;;;;;;;13.12;33.01;99211.63;6167609;23;20028;-73
2022/04/15 11:08:17;;;;;;;3.35;1.38;;;;;;;13.40;32.79;99206.78;6155954;23;20112;-70
2022/04/15 11:10:58;;;;;;;4.07;1.25;;;;;;;13.34;33.27;99206.25;6155235;23;20506;-72
2022/04/15 11:13:47;;;;;;;3.75;1.70;;;;;;;13.20;33.59;99203.06;6155008;23;20032;-73
2022/04/15 11:16:16;;;;;;;4.60;1.92;;;;;;;13.42;33.24;99193.28;6150433;23;20029;-74
2022/04/15 11:18:51;;;;;;;6.20;1.70;;;;;;;13.83;32.93;99198.31;6153884;23;20117;-68
2022/04/15 11:21:37;;;;;;;3.10;1.10;;;;;;;14.07;32.59;99192.50;6155488;23;20112;-69
2022/04/15 11:24:09;;;;;;;2.72;1.30;;;;;;;13.95;32.72;99189.81;6155952;23;20029;-74
2022/04/15 11:26:40;;;;;;;2.90;1.38;;;;;;;14.02;32.42;99178.78;6155045;23;20025;-72
2022/04/15 11:29:09;;;;;;;6.70;1.50;;;;;;;14.03;32.77;99180.41;6156070;23;20104;-73
2022/04/15 11:31:38;;;;;;;2.50;1.40;;;;;;;13.91;32.44;99184.13;6156379;23;20025;-71
2022/04/15 11:34:06;;;;;;;5.32;1.13;;;;;;;13.88;32.40;99179.28;6154196;23;20370;-73
2022/04/15 11:36:39;;;;;;;5.57;1.58;;;;;;;13.93;32.13;99176.22;6153432;23;20025;-72
2022/04/15 11:39:09;;;;;;;3.25;1.25;;;;;;;13.78;32.21;99168.66;6155692;23;20109;-65
2022/04/15 11:41:44;;;;;;;8.80;1.40;;;;;;;13.74;32.16;99161.34;6155458;23;20026;-64